createdAt,value
2023-05-18T00:00:57.040Z,1309.00
2023-05-18T00:01:57.092Z,1469.00
2023-05-18T00:02:57.199Z,1565.00
2023-05-18T00:03:57.217Z,1646.00
2023-05-18T00:04:57.231Z,1742.00
2023-05-18T00:05:57.270Z,1846.00
2023-05-18T00:06:57.348Z,1946.00
2023-05-18T00:07:57.401Z,1994.00
2023-05-18T00:08:57.520Z,2040.00
2023-05-18T00:09:57.584Z,2069.00
2023-05-18T00:10:57.672Z,1965.00
2023-05-18T00:11:57.750Z,1903.00
2023-05-18T00:12:57.787Z,1906.00
2023-05-18T00:13:57.958Z,1874.00
2023-05-18T00:14:57.901Z,1842.00
2023-05-18T00:15:57.961Z,1877.00
2023-05-18T00:16:58.012Z,1883.00
2023-05-18T00:17:58.011Z,1870.00
2023-05-18T00:18:58.153Z,1758.00
2023-05-18T00:19:58.126Z,1677.00
2023-05-18T00:20:58.150Z,1590.00
2023-05-18T00:21:58.208Z,1550.00
2023-05-18T00:22:58.171Z,1465.00
2023-05-18T00:23:58.168Z,1480.00
2023-05-18T00:24:58.213Z,1510.00
2023-05-18T00:25:58.300Z,1497.00
2023-05-18T00:26:58.301Z,1471.00
2023-05-18T00:27:58.340Z,1490.00
2023-05-18T00:28:58.373Z,1522.00
2023-05-18T00:29:58.405Z,1582.00
2023-05-18T00:30:58.471Z,1614.00
2023-05-18T00:31:58.548Z,1611.00
2023-05-18T00:32:58.555Z,1591.00
2023-05-18T00:33:58.431Z,1562.00
2023-05-18T00:34:58.729Z,1540.00
2023-05-18T00:35:58.572Z,1457.00
2023-05-18T00:36:58.605Z,1481.00
2023-05-18T00:37:58.590Z,1368.00
2023-05-18T00:38:58.628Z,1454.00
2023-05-18T00:39:58.595Z,1500.00
2023-05-18T00:40:58.612Z,1403.00
2023-05-18T00:41:58.613Z,1316.00
2023-05-18T00:42:58.619Z,1327.00
2023-05-18T00:43:58.612Z,1259.00
2023-05-18T00:44:58.661Z,1212.00
2023-05-18T00:45:58.735Z,1118.00
2023-05-18T00:46:58.710Z,1095.00
2023-05-18T00:47:58.770Z,1084.00
2023-05-18T00:48:58.754Z,1094.00
2023-05-18T00:49:58.776Z,1178.00
2023-05-18T00:50:58.730Z,1289.00
2023-05-18T00:51:58.741Z,1321.00
2023-05-18T00:52:58.763Z,1278.00
2023-05-18T00:53:58.728Z,1297.00
2023-05-18T00:54:59.190Z,1284.00
2023-05-18T00:55:58.732Z,1300.00
2023-05-18T00:56:58.743Z,1300.00
2023-05-18T00:57:58.752Z,1226.00
2023-05-18T00:58:58.763Z,1233.00
2023-05-18T00:59:58.723Z,1108.00
2023-05-18T01:00:58.791Z,1061.00
2023-05-18T01:01:58.811Z,1109.00
2023-05-18T01:02:58.988Z,1130.00
2023-05-18T01:03:58.789Z,1124.00
2023-05-18T01:04:59.140Z,1113.00
2023-05-18T01:05:58.865Z,1070.00
2023-05-18T01:06:58.817Z,1039.00
2023-05-18T01:07:58.813Z,1013.00
2023-05-18T01:08:58.838Z,961.00
2023-05-18T01:09:59.171Z,904.00
2023-05-18T01:10:58.843Z,911.00
2023-05-18T01:11:58.864Z,952.00
2023-05-18T01:12:58.808Z,930.00
2023-05-18T01:13:58.800Z,923.00
2023-05-18T01:14:59.164Z,934.00
2023-05-18T01:15:58.834Z,944.00
2023-05-18T01:16:58.819Z,920.00
2023-05-18T01:17:58.845Z,969.00
2023-05-18T01:18:58.812Z,1057.00
2023-05-18T01:19:58.849Z,1096.00
2023-05-18T01:20:58.824Z,1124.00
2023-05-18T01:21:58.815Z,1181.00
2023-05-18T01:22:58.820Z,1258.00
2023-05-18T01:23:58.858Z,1167.00
2023-05-18T01:24:59.185Z,986.00
2023-05-18T01:25:58.860Z,917.00
2023-05-18T01:26:58.893Z,868.00
2023-05-18T01:27:58.847Z,946.00
2023-05-18T01:28:58.866Z,1012.00
2023-05-18T01:29:58.892Z,1058.00
2023-05-18T01:30:58.937Z,1203.00
2023-05-18T01:31:58.881Z,1280.00
2023-05-18T01:32:58.939Z,1294.00
2023-05-18T01:33:58.849Z,1262.00
2023-05-18T01:34:58.856Z,1288.00
2023-05-18T01:35:58.904Z,1318.00
2023-05-18T01:36:58.895Z,1355.00
2023-05-18T01:37:58.886Z,1379.00
2023-05-18T01:38:58.929Z,1471.00
2023-05-18T01:39:59.179Z,1563.00
2023-05-18T01:40:58.943Z,1702.00
2023-05-18T01:41:58.954Z,1731.00
2023-05-18T01:42:58.956Z,1814.00
2023-05-18T01:43:58.923Z,1873.00
2023-05-18T01:44:58.972Z,1959.00
2023-05-18T01:45:58.961Z,1998.00
2023-05-18T01:46:58.942Z,2069.00
2023-05-18T01:47:59.014Z,2145.00
2023-05-18T01:48:59.003Z,2192.00
2023-05-18T01:49:58.970Z,2169.00
2023-05-18T01:50:58.978Z,2183.00
2023-05-18T01:51:59.004Z,2191.00
2023-05-18T01:52:59.019Z,2191.00
2023-05-18T01:53:58.985Z,2104.00
2023-05-18T01:54:59.004Z,2068.00
2023-05-18T01:55:59.038Z,1970.00
2023-05-18T01:56:59.000Z,1907.00
2023-05-18T01:57:59.012Z,1871.00
2023-05-18T01:58:59.035Z,1795.00
2023-05-18T01:59:58.998Z,1769.00
2023-05-18T02:00:59.012Z,1798.00
2023-05-18T02:01:59.778Z,1872.00
2023-05-18T02:02:59.117Z,1878.00
2023-05-18T02:03:59.240Z,1860.00
2023-05-18T02:04:58.999Z,1888.00
2023-05-18T02:05:59.006Z,1914.00
2023-05-18T02:06:59.033Z,1961.00
2023-05-18T02:07:59.070Z,1985.00
2023-05-18T02:08:59.037Z,1951.00
2023-05-18T02:09:59.105Z,1893.00
2023-05-18T02:10:59.074Z,1864.00
2023-05-18T02:11:59.100Z,1852.00
2023-05-18T02:12:59.088Z,1857.00
2023-05-18T02:13:59.100Z,1867.00
2023-05-18T02:14:59.174Z,1913.00
2023-05-18T02:16:00.742Z,1922.00
2023-05-18T02:16:59.166Z,1913.00
2023-05-18T02:17:59.253Z,1971.00
2023-05-18T02:18:59.217Z,2076.00
2023-05-18T02:19:59.714Z,2282.00
2023-05-18T02:20:59.210Z,2440.00
2023-05-18T02:21:59.201Z,2536.00
2023-05-18T02:22:59.253Z,2519.00
2023-05-18T02:23:59.201Z,2512.00
2023-05-18T02:24:59.272Z,2494.00
2023-05-18T02:25:59.235Z,2449.00
2023-05-18T02:26:59.239Z,2441.00
2023-05-18T02:27:59.290Z,2435.00
2023-05-18T02:28:59.363Z,2464.00
2023-05-18T02:29:59.371Z,2436.00
2023-05-18T02:30:59.318Z,2391.00
2023-05-18T02:31:59.329Z,2378.00
2023-05-18T02:32:59.373Z,2297.00
2023-05-18T02:33:59.338Z,2234.00
2023-05-18T02:34:59.414Z,2291.00
2023-05-18T02:35:59.407Z,2353.00
2023-05-18T02:36:59.431Z,2436.00
2023-05-18T02:37:59.418Z,2339.00
2023-05-18T02:38:59.479Z,2308.00
2023-05-18T02:39:59.492Z,2192.00
2023-05-18T02:40:59.549Z,2100.00
2023-05-18T02:41:59.560Z,2094.00
2023-05-18T02:42:59.559Z,2167.00
2023-05-18T02:43:59.572Z,2207.00
2023-05-18T02:44:59.700Z,2203.00
2023-05-18T02:45:59.685Z,2298.00
2023-05-18T02:46:59.634Z,2417.00
2023-05-18T02:47:59.748Z,2551.00
2023-05-18T02:48:59.714Z,2770.00
2023-05-18T02:49:59.809Z,2923.00
2023-05-18T02:50:59.767Z,2983.00
2023-05-18T02:51:59.773Z,3086.00
2023-05-18T02:52:59.857Z,3171.00
2023-05-18T02:53:59.865Z,3180.00
2023-05-18T02:54:59.858Z,3023.00
2023-05-18T02:55:59.903Z,2973.00
2023-05-18T02:56:59.915Z,2938.00
2023-05-18T02:57:59.966Z,2934.00
2023-05-18T02:59:00.761Z,2820.00
2023-05-18T03:00:00.029Z,2682.00
2023-05-18T03:01:00.151Z,2650.00
2023-05-18T03:02:00.161Z,2583.00
2023-05-18T03:03:00.259Z,2403.00
2023-05-18T03:04:00.168Z,2330.00
2023-05-18T03:05:00.223Z,2218.00
2023-05-18T03:06:00.154Z,2088.00
2023-05-18T03:07:00.169Z,1999.00
2023-05-18T03:08:00.213Z,1963.00
2023-05-18T03:09:00.180Z,1858.00
2023-05-18T03:10:00.213Z,1755.00
2023-05-18T03:11:00.268Z,1639.00
2023-05-18T03:12:00.275Z,1597.00
2023-05-18T03:13:00.340Z,1653.00
2023-05-18T03:14:00.362Z,1687.00
2023-05-18T03:15:00.368Z,1728.00
2023-05-18T03:16:00.359Z,1755.00
2023-05-18T03:17:00.494Z,1744.00
2023-05-18T03:18:00.443Z,1761.00
2023-05-18T03:19:00.472Z,1722.00
2023-05-18T03:20:00.566Z,1578.00
2023-05-18T03:21:00.566Z,1480.00
2023-05-18T03:22:00.544Z,1420.00
2023-05-18T03:23:00.574Z,1355.00
2023-05-18T03:24:00.585Z,1318.00
2023-05-18T03:25:00.669Z,1334.00
2023-05-18T03:26:00.802Z,1282.00
2023-05-18T03:27:00.741Z,1313.00
2023-05-18T03:28:00.728Z,1528.00
2023-05-18T03:29:00.764Z,2073.00
2023-05-18T03:30:00.780Z,2293.00
2023-05-18T03:31:00.834Z,2502.00
2023-05-18T03:32:00.854Z,2642.00
2023-05-18T03:33:00.902Z,2742.00
2023-05-18T03:34:00.929Z,2799.00
2023-05-18T03:35:01.012Z,2857.00
2023-05-18T03:36:01.007Z,2890.00
2023-05-18T03:37:01.046Z,2844.00
2023-05-18T03:38:01.266Z,2739.00
2023-05-18T03:39:01.128Z,2485.00
2023-05-18T03:40:01.202Z,2400.00
2023-05-18T03:41:01.223Z,2375.00
2023-05-18T03:42:01.257Z,2370.00
2023-05-18T03:43:01.301Z,2349.00
2023-05-18T03:44:01.354Z,2322.00
2023-05-18T03:45:01.391Z,2301.00
2023-05-18T03:46:01.489Z,2228.00
2023-05-18T03:47:01.510Z,2227.00
2023-05-18T03:48:01.587Z,2222.00
2023-05-18T03:49:01.561Z,2180.00
2023-05-18T03:50:01.586Z,2134.00
2023-05-18T03:51:01.617Z,2092.00
2023-05-18T03:52:01.618Z,2005.00
2023-05-18T03:53:01.645Z,2040.00
2023-05-18T03:54:01.725Z,2102.00
2023-05-18T03:55:02.235Z,2047.00
2023-05-18T03:56:01.770Z,1988.00
2023-05-18T03:57:01.819Z,1944.00
2023-05-18T03:58:02.709Z,1874.00
2023-05-18T03:59:01.873Z,1779.00
2023-05-18T04:00:01.881Z,1796.00
2023-05-18T04:01:01.923Z,1832.00
2023-05-18T04:02:02.009Z,1861.00
2023-05-18T04:03:02.070Z,1911.00
2023-05-18T04:04:02.053Z,1918.00
2023-05-18T04:05:02.045Z,1910.00
2023-05-18T04:06:02.080Z,1917.00
2023-05-18T04:07:02.129Z,1961.00
2023-05-18T04:08:02.174Z,1982.00
2023-05-18T04:09:02.192Z,2002.00
2023-05-18T04:10:02.722Z,1931.00
2023-05-18T04:11:02.235Z,1787.00
2023-05-18T04:12:02.281Z,1615.00
2023-05-18T04:13:02.335Z,1469.00
2023-05-18T04:14:02.371Z,1505.00
2023-05-18T04:15:02.723Z,1551.00
2023-05-18T04:16:02.501Z,1548.00
2023-05-18T04:17:02.529Z,1514.00
2023-05-18T04:18:02.536Z,1472.00
2023-05-18T04:19:02.576Z,1380.00
2023-05-18T04:20:02.745Z,1328.00
2023-05-18T04:21:02.538Z,1295.00
2023-05-18T04:22:02.556Z,1263.00
2023-05-18T04:23:02.630Z,1273.00
2023-05-18T04:24:02.629Z,1281.00
2023-05-18T04:25:03.240Z,1342.00
2023-05-18T04:26:02.781Z,1353.00
2023-05-18T04:27:02.729Z,1325.00
2023-05-18T04:28:02.730Z,1315.00
2023-05-18T04:29:02.828Z,1299.00
2023-05-18T04:30:02.826Z,1266.00
2023-05-18T04:31:02.877Z,1292.00
2023-05-18T04:32:02.901Z,1364.00
2023-05-18T04:33:02.903Z,1395.00
2023-05-18T04:34:02.877Z,1336.00
2023-05-18T04:35:02.934Z,1283.00
2023-05-18T04:36:02.959Z,1263.00
2023-05-18T04:37:02.962Z,1269.00
2023-05-18T04:38:03.009Z,1349.00
2023-05-18T04:39:03.015Z,1379.00
2023-05-18T04:40:03.258Z,1396.00
2023-05-18T04:41:03.131Z,1445.00
2023-05-18T04:42:03.135Z,1505.00
2023-05-18T04:43:03.149Z,1569.00
2023-05-18T04:44:03.155Z,1556.00
2023-05-18T04:45:03.219Z,1565.00
2023-05-18T04:46:03.269Z,1564.00
2023-05-18T04:47:03.310Z,1586.00
2023-05-18T04:48:03.297Z,1643.00
2023-05-18T04:49:03.326Z,1655.00
2023-05-18T04:50:03.756Z,1690.00
2023-05-18T04:51:03.420Z,1704.00
2023-05-18T04:52:03.458Z,1644.00
2023-05-18T04:53:03.464Z,1605.00
2023-05-18T04:54:03.546Z,1648.00
2023-05-18T04:55:03.744Z,1714.00
2023-05-18T04:56:03.554Z,1684.00
2023-05-18T04:57:03.615Z,1627.00
2023-05-18T04:58:03.663Z,1679.00
2023-05-18T04:59:03.659Z,1719.00
2023-05-18T05:00:03.726Z,1775.00
2023-05-18T05:01:03.756Z,1729.00
2023-05-18T05:02:03.765Z,1707.00
2023-05-18T05:03:03.845Z,1741.00
2023-05-18T05:04:03.806Z,1738.00
2023-05-18T05:05:04.228Z,1783.00
2023-05-18T05:06:03.880Z,1828.00
2023-05-18T05:07:03.868Z,1895.00
2023-05-18T05:08:03.871Z,1839.00
2023-05-18T05:09:03.934Z,1824.00
2023-05-18T05:10:04.207Z,1749.00
2023-05-18T05:11:03.947Z,1665.00
2023-05-18T05:12:04.031Z,1648.00
2023-05-18T05:13:03.954Z,1716.00
2023-05-18T05:14:04.009Z,1729.00
2023-05-18T05:15:04.000Z,1639.00
2023-05-18T05:16:04.061Z,1625.00
2023-05-18T05:17:04.044Z,1735.00
2023-05-18T05:18:04.037Z,1806.00
2023-05-18T05:19:04.173Z,1777.00
2023-05-18T05:20:04.116Z,1732.00
2023-05-18T05:21:04.109Z,1597.00
2023-05-18T05:22:04.125Z,1557.00
2023-05-18T05:23:04.144Z,1571.00
2023-05-18T05:24:04.098Z,1486.00
2023-05-18T05:25:06.087Z,1497.00
2023-05-18T05:26:04.175Z,1481.00
2023-05-18T05:27:04.165Z,1391.00
2023-05-18T05:28:04.173Z,1438.00
2023-05-18T05:29:04.167Z,1511.00
2023-05-18T05:30:04.227Z,1535.00
2023-05-18T05:31:04.211Z,1536.00
2023-05-18T05:32:04.308Z,1537.00
2023-05-18T05:33:04.252Z,1586.00
2023-05-18T05:34:04.196Z,1620.00
2023-05-18T05:35:04.263Z,1599.00
2023-05-18T05:36:04.188Z,1600.00
2023-05-18T05:37:04.223Z,1539.00
2023-05-18T05:38:04.261Z,1368.00
2023-05-18T05:39:04.201Z,1254.00
2023-05-18T05:40:04.201Z,1192.00
2023-05-18T05:41:04.212Z,1094.00
2023-05-18T05:42:04.261Z,1092.00
2023-05-18T05:43:04.260Z,1066.00
2023-05-18T05:44:04.224Z,1094.00
2023-05-18T05:45:04.748Z,1154.00
2023-05-18T05:46:04.241Z,1157.00
2023-05-18T05:47:04.351Z,1158.00
2023-05-18T05:48:04.355Z,1063.00
2023-05-18T05:49:04.308Z,1016.00
2023-05-18T05:50:04.775Z,910.00
2023-05-18T05:51:04.349Z,873.00
2023-05-18T05:52:04.395Z,905.00
2023-05-18T05:53:04.475Z,865.00
2023-05-18T05:54:04.506Z,878.00
2023-05-18T05:55:04.681Z,940.00
2023-05-18T05:56:04.678Z,906.00
2023-05-18T05:57:04.709Z,839.00
2023-05-18T05:58:04.780Z,849.00
2023-05-18T05:59:04.845Z,877.00
2023-05-18T06:00:05.266Z,835.00
2023-05-18T06:01:05.005Z,936.00
2023-05-18T06:02:05.128Z,862.00
2023-05-18T06:03:05.177Z,723.00
2023-05-18T06:04:05.204Z,676.00
2023-05-18T06:05:05.736Z,678.00
2023-05-18T06:06:05.319Z,683.00
2023-05-18T06:07:05.355Z,654.00
2023-05-18T06:08:05.430Z,673.00
2023-05-18T06:09:05.524Z,658.00
2023-05-18T06:10:05.759Z,630.00
2023-05-18T06:11:05.613Z,625.00
2023-05-18T06:12:05.693Z,622.00
2023-05-18T06:13:05.756Z,625.00
2023-05-18T06:14:05.822Z,647.00
2023-05-18T06:15:06.240Z,716.00
2023-05-18T06:16:06.010Z,662.00
2023-05-18T06:17:06.205Z,630.00
2023-05-18T06:18:06.152Z,658.00
2023-05-18T06:19:06.217Z,670.00
2023-05-18T06:20:06.237Z,651.00
2023-05-18T06:21:06.265Z,623.00
2023-05-18T06:22:06.292Z,624.00
2023-05-18T06:23:06.403Z,643.00
2023-05-18T06:24:06.380Z,649.00
2023-05-18T06:25:06.500Z,629.00
2023-05-18T06:26:06.539Z,608.00
2023-05-18T06:27:07.274Z,570.00
2023-05-18T06:28:06.622Z,547.00
2023-05-18T06:29:06.664Z,546.00
2023-05-18T06:30:06.696Z,555.00
2023-05-18T06:31:06.742Z,579.00
2023-05-18T06:32:06.775Z,586.00
2023-05-18T06:33:06.938Z,605.00
2023-05-18T06:34:06.890Z,652.00
2023-05-18T06:35:07.297Z,695.00
2023-05-18T06:36:07.053Z,649.00
2023-05-18T06:37:07.060Z,605.00
2023-05-18T06:38:07.062Z,581.00
2023-05-18T06:39:07.140Z,589.00
2023-05-18T06:40:07.106Z,565.00
2023-05-18T06:41:07.115Z,532.00
2023-05-18T06:42:07.177Z,493.00
2023-05-18T06:43:07.185Z,498.00
2023-05-18T06:44:07.222Z,519.00
2023-05-18T06:45:07.255Z,495.00
2023-05-18T06:46:07.304Z,508.00
2023-05-18T06:47:07.262Z,522.00
2023-05-18T06:48:07.299Z,537.00
2023-05-18T06:49:07.324Z,542.00
2023-05-18T06:50:07.316Z,522.00
2023-05-18T06:51:07.350Z,534.00
2023-05-18T06:52:07.351Z,514.00
2023-05-18T06:53:07.382Z,520.00
2023-05-18T06:54:07.407Z,567.00
2023-05-18T06:55:07.459Z,538.00
2023-05-18T06:56:07.428Z,520.00
2023-05-18T06:57:07.429Z,543.00
2023-05-18T06:58:07.563Z,538.00
2023-05-18T06:59:07.497Z,551.00
2023-05-18T07:00:07.504Z,497.00
2023-05-18T07:01:07.536Z,511.00
2023-05-18T07:02:07.513Z,499.00
2023-05-18T07:03:07.734Z,497.00
2023-05-18T07:04:07.700Z,502.00
2023-05-18T07:05:07.555Z,504.00
2023-05-18T07:06:07.550Z,499.00
2023-05-18T07:07:07.606Z,513.00
2023-05-18T07:08:07.721Z,543.00
2023-05-18T07:09:07.659Z,519.00
2023-05-18T07:10:07.620Z,538.00
2023-05-18T07:11:07.594Z,567.00
2023-05-18T07:12:07.575Z,616.00
2023-05-18T07:13:07.590Z,571.00
2023-05-18T07:14:07.581Z,540.00
2023-05-18T07:15:07.856Z,504.00
2023-05-18T07:16:07.772Z,497.00
2023-05-18T07:17:07.729Z,497.00
2023-05-18T07:18:07.882Z,514.00
2023-05-18T07:19:07.770Z,500.00
2023-05-18T07:20:07.826Z,498.00
2023-05-18T07:21:07.862Z,499.00
2023-05-18T07:22:07.926Z,509.00
2023-05-18T07:23:07.998Z,510.00
2023-05-18T07:24:07.932Z,568.00
2023-05-18T07:25:07.930Z,605.00
2023-05-18T07:26:07.892Z,588.00
2023-05-18T07:27:07.872Z,586.00
2023-05-18T07:28:08.001Z,621.00
2023-05-18T07:29:07.982Z,627.00
2023-05-18T07:30:08.084Z,625.00
2023-05-18T07:31:08.091Z,589.00
2023-05-18T07:32:08.128Z,603.00
2023-05-18T07:33:08.219Z,605.00
2023-05-18T07:34:08.250Z,576.00
2023-05-18T07:35:08.317Z,638.00
2023-05-18T07:36:08.361Z,680.00
2023-05-18T07:37:08.439Z,653.00
2023-05-18T07:38:08.484Z,495.00
2023-05-18T07:39:08.542Z,531.00
2023-05-18T07:40:08.863Z,546.00
2023-05-18T07:41:08.665Z,533.00
2023-05-18T07:42:08.780Z,483.00
2023-05-18T07:43:08.824Z,445.00
2023-05-18T07:44:08.840Z,503.00
2023-05-18T07:45:09.283Z,548.00
2023-05-18T07:46:09.032Z,505.00
2023-05-18T07:47:09.231Z,507.00
2023-05-18T07:48:09.217Z,488.00
2023-05-18T07:49:09.126Z,511.00
2023-05-18T07:50:09.257Z,567.00
2023-05-18T07:51:09.244Z,611.00
2023-05-18T07:52:09.338Z,570.00
2023-05-18T07:53:09.354Z,538.00
2023-05-18T07:54:09.322Z,494.00
2023-05-18T07:55:09.817Z,503.00
2023-05-18T07:56:09.398Z,540.00
2023-05-18T07:57:09.397Z,505.00
2023-05-18T07:58:09.522Z,477.00
2023-05-18T07:59:09.415Z,500.00
2023-05-18T08:00:09.413Z,518.00
2023-05-18T08:01:09.453Z,501.00
2023-05-18T08:02:09.481Z,497.00
2023-05-18T08:03:09.571Z,500.00
2023-05-18T08:04:09.680Z,497.00
2023-05-18T08:05:09.534Z,503.00
2023-05-18T08:06:09.612Z,537.00
2023-05-18T08:07:09.512Z,549.00
2023-05-18T08:08:09.527Z,524.00
2023-05-18T08:09:09.542Z,522.00
2023-05-18T08:10:09.579Z,515.00
2023-05-18T08:11:09.537Z,533.00
2023-05-18T08:12:09.516Z,530.00
2023-05-18T08:13:09.561Z,500.00
2023-05-18T08:14:09.544Z,542.00
2023-05-18T08:15:09.601Z,512.00
2023-05-18T08:16:12.316Z,500.00
2023-05-18T08:17:09.749Z,511.00
2023-05-18T08:18:09.720Z,441.00
2023-05-18T08:19:09.692Z,473.00
2023-05-18T08:20:09.709Z,505.00
2023-05-18T08:21:09.881Z,552.00
2023-05-18T08:22:09.653Z,539.00
2023-05-18T08:23:09.576Z,539.00
2023-05-18T08:24:09.594Z,556.00
2023-05-18T08:25:09.618Z,562.00
2023-05-18T08:26:10.947Z,606.00
2023-05-18T08:27:09.567Z,616.00
2023-05-18T08:28:09.586Z,601.00
2023-05-18T08:29:09.617Z,645.00
2023-05-18T08:30:09.605Z,649.00
2023-05-18T08:31:09.598Z,674.00
2023-05-18T08:32:09.750Z,697.00
2023-05-18T08:33:09.724Z,676.00
2023-05-18T08:34:09.685Z,750.00
2023-05-18T08:35:09.730Z,645.00
2023-05-18T08:36:09.760Z,690.00
2023-05-18T08:37:09.761Z,653.00
2023-05-18T08:38:09.824Z,647.00
2023-05-18T08:39:19.857Z,681.00
2023-05-18T08:40:19.859Z,686.00
2023-05-18T08:41:24.387Z,688.00
2023-05-18T08:42:20.032Z,690.00
2023-05-18T08:44:40.416Z,500.00
2023-05-18T08:45:40.442Z,500.00
2023-05-18T08:46:40.485Z,500.00
2023-05-18T08:47:30.198Z,500.00
2023-05-18T08:48:30.306Z,500.00
2023-05-18T08:49:43.732Z,500.00
2023-05-18T08:50:40.479Z,500.00
2023-05-18T08:52:50.294Z,500.00
2023-05-18T08:53:50.368Z,500.00
2023-05-18T08:54:50.269Z,500.00
2023-05-18T08:55:50.528Z,500.00
2023-05-18T08:56:50.265Z,500.00
2023-05-18T08:57:50.275Z,502.00
2023-05-18T08:58:50.272Z,526.00
2023-05-18T08:59:50.296Z,500.00
2023-05-18T09:00:50.259Z,499.00
2023-05-18T09:01:50.269Z,509.00
2023-05-18T09:02:50.311Z,549.00
2023-05-18T09:03:50.207Z,557.00
2023-05-18T09:04:50.230Z,491.00
2023-05-18T09:05:50.497Z,500.00
2023-05-18T09:06:50.196Z,495.00
2023-05-18T09:07:50.278Z,500.00
2023-05-18T09:08:50.184Z,506.00
2023-05-18T09:09:50.166Z,502.00
2023-05-18T09:10:50.482Z,507.00
2023-05-18T09:11:50.190Z,502.00
2023-05-18T09:12:50.122Z,496.00
2023-05-18T09:13:50.150Z,499.00
2023-05-18T09:14:50.129Z,528.00
2023-05-18T09:15:50.500Z,590.00
2023-05-18T09:16:50.205Z,613.00
2023-05-18T09:17:50.183Z,602.00
2023-05-18T09:18:50.189Z,500.00
2023-05-18T09:19:50.234Z,499.00
2023-05-18T09:20:50.494Z,505.00
2023-05-18T09:21:50.194Z,501.00
2023-05-18T09:22:50.256Z,507.00
2023-05-18T09:23:50.330Z,559.00
2023-05-18T09:24:50.426Z,574.00
2023-05-18T09:25:50.507Z,543.00
2023-05-18T09:26:50.435Z,500.00
2023-05-18T09:27:50.479Z,500.00
2023-05-18T09:28:50.486Z,499.00
2023-05-18T09:29:50.505Z,482.00
2023-05-18T09:30:50.473Z,534.00
2023-05-18T09:31:50.472Z,571.00
2023-05-18T09:32:50.585Z,505.00
2023-05-18T09:33:50.565Z,500.00
2023-05-18T09:34:50.538Z,533.00
2023-05-18T09:35:50.631Z,529.00
2023-05-18T09:36:50.660Z,546.00
2023-05-18T09:37:50.673Z,644.00
2023-05-18T09:38:50.831Z,629.00
2023-05-18T09:39:50.873Z,602.00
2023-05-18T09:40:51.036Z,613.00
2023-05-18T09:41:51.045Z,614.00
2023-05-18T09:42:51.100Z,645.00
2023-05-18T09:43:51.193Z,618.00
2023-05-18T09:44:51.321Z,643.00
2023-05-18T09:45:51.340Z,630.00
2023-05-18T09:46:51.433Z,688.00
2023-05-18T09:47:51.655Z,705.00
2023-05-18T09:48:51.527Z,776.00
2023-05-18T09:49:51.560Z,767.00
2023-05-18T09:50:52.039Z,970.00
2023-05-18T09:51:51.767Z,820.00
2023-05-18T09:52:51.748Z,660.00
2023-05-18T09:53:51.790Z,641.00
2023-05-18T09:54:51.814Z,741.00
2023-05-18T09:55:52.010Z,775.00
2023-05-18T09:57:08.407Z,837.00
2023-05-18T09:57:52.940Z,833.00
2023-05-18T09:58:51.922Z,730.00
2023-05-18T09:59:52.015Z,712.00
2023-05-18T10:00:52.124Z,732.00
2023-05-18T10:01:51.900Z,775.00
2023-05-18T10:02:51.887Z,799.00
2023-05-18T10:03:52.047Z,819.00
2023-05-18T10:04:52.029Z,844.00
2023-05-18T10:05:52.032Z,864.00
2023-05-18T10:06:52.049Z,975.00
2023-05-18T10:07:52.162Z,1057.00
2023-05-18T10:08:52.177Z,904.00
2023-05-18T10:09:52.208Z,850.00
2023-05-18T10:10:52.277Z,864.00
2023-05-18T10:11:52.315Z,876.00
2023-05-18T10:12:52.394Z,853.00
2023-05-18T10:13:52.434Z,990.00
2023-05-18T10:14:52.448Z,1100.00
2023-05-18T10:15:52.532Z,1042.00
2023-05-18T10:17:00.348Z,1002.00
2023-05-18T10:17:53.641Z,795.00
2023-05-18T10:18:52.590Z,720.00
2023-05-18T10:19:52.526Z,610.00
2023-05-18T10:20:52.544Z,616.00
2023-05-18T10:21:52.502Z,630.00
2023-05-18T10:22:52.502Z,626.00
2023-05-18T10:23:52.452Z,647.00
2023-05-18T10:24:52.468Z,640.00
2023-05-18T10:25:52.465Z,635.00
2023-05-18T10:26:54.081Z,597.00
2023-05-18T10:27:52.484Z,589.00
2023-05-18T10:28:52.485Z,587.00
2023-05-18T10:29:52.694Z,509.00
2023-05-18T10:30:52.494Z,514.00
2023-05-18T10:31:52.457Z,520.00
2023-05-18T10:32:52.575Z,528.00
2023-05-18T10:33:52.439Z,564.00
2023-05-18T10:34:52.429Z,502.00
2023-05-18T10:35:52.439Z,479.00
2023-05-18T10:36:52.443Z,526.00
2023-05-18T10:37:52.403Z,475.00
2023-05-18T10:38:52.406Z,509.00
2023-05-18T10:39:52.416Z,497.00
2023-05-18T10:40:52.371Z,500.00
2023-05-18T10:41:52.372Z,500.00
2023-05-18T10:42:52.378Z,489.00
2023-05-18T10:43:52.352Z,522.00
2023-05-18T10:44:52.333Z,518.00
2023-05-18T10:45:52.360Z,543.00
2023-05-18T10:46:52.534Z,593.00
2023-05-18T10:47:52.444Z,616.00
2023-05-18T10:48:52.320Z,581.00
2023-05-18T10:49:52.329Z,527.00
2023-05-18T10:50:52.351Z,499.00
2023-05-18T10:51:52.348Z,504.00
2023-05-18T10:52:52.291Z,500.00
2023-05-18T10:53:54.484Z,510.00
2023-05-18T10:54:52.309Z,511.00
2023-05-18T10:55:52.526Z,524.00
2023-05-18T10:56:52.269Z,549.00
2023-05-18T10:57:52.276Z,554.00
2023-05-18T10:58:52.281Z,527.00
2023-05-18T10:59:52.250Z,497.00
2023-05-18T11:00:52.320Z,500.00
2023-05-18T11:01:52.349Z,565.00
2023-05-18T11:02:52.283Z,613.00
2023-05-18T11:03:52.277Z,601.00
2023-05-18T11:04:54.172Z,612.00
2023-05-18T11:05:52.298Z,650.00
2023-05-18T11:06:52.192Z,730.00
2023-05-18T11:07:52.197Z,678.00
2023-05-18T11:08:52.249Z,728.00
2023-05-18T11:09:52.212Z,695.00
2023-05-18T11:10:52.588Z,632.00
2023-05-18T11:11:52.167Z,654.00
2023-05-18T11:12:52.171Z,611.00
2023-05-18T11:13:52.205Z,600.00
2023-05-18T11:14:52.133Z,615.00
2023-05-18T11:15:52.580Z,592.00
2023-05-18T11:16:52.269Z,547.00
2023-05-18T11:17:52.172Z,516.00
2023-05-18T11:18:52.260Z,442.00
2023-05-18T11:19:52.323Z,500.00
2023-05-18T11:20:52.173Z,531.00
2023-05-18T11:21:52.204Z,488.00
2023-05-18T11:22:52.189Z,454.00
2023-05-18T11:23:52.200Z,473.00
2023-05-18T11:24:52.295Z,504.00
2023-05-18T11:25:52.244Z,494.00
2023-05-18T11:26:52.279Z,507.00
2023-05-18T11:27:52.321Z,541.00
2023-05-18T11:28:52.350Z,539.00
2023-05-18T11:30:03.873Z,542.00
2023-05-18T11:30:53.434Z,503.00
2023-05-18T11:31:52.447Z,478.00
2023-05-18T11:32:52.516Z,496.00
2023-05-18T11:33:52.381Z,516.00
2023-05-18T11:34:52.428Z,471.00
2023-05-18T11:35:52.390Z,503.00
2023-05-18T11:36:52.342Z,549.00
2023-05-18T11:37:52.350Z,585.00
2023-05-18T11:38:52.331Z,569.00
2023-05-18T11:39:59.366Z,584.00
2023-05-18T11:40:53.653Z,566.00
2023-05-18T11:41:52.526Z,584.00
2023-05-18T11:42:52.333Z,593.00
2023-05-18T11:43:52.382Z,608.00
2023-05-18T11:44:52.302Z,593.00
2023-05-18T11:45:52.567Z,630.00
2023-05-18T11:46:52.320Z,646.00
2023-05-18T11:47:52.360Z,666.00
2023-05-18T11:48:52.359Z,710.00
2023-05-18T11:49:52.279Z,875.00
2023-05-18T11:50:52.297Z,769.00
2023-05-18T11:51:52.259Z,769.00
2023-05-18T11:52:52.245Z,662.00
2023-05-18T11:53:52.250Z,823.00
2023-05-18T11:54:52.311Z,842.00
2023-05-18T11:55:52.261Z,945.00
2023-05-18T11:56:52.222Z,853.00
2023-05-18T11:57:52.530Z,732.00
2023-05-18T11:58:52.422Z,689.00
2023-05-18T11:59:52.397Z,636.00
2023-05-18T12:00:52.455Z,605.00
2023-05-18T12:01:52.483Z,614.00
2023-05-18T12:02:52.930Z,616.00
2023-05-18T12:03:52.582Z,608.00
2023-05-18T12:04:52.572Z,627.00
2023-05-18T12:05:52.629Z,632.00
2023-05-18T12:06:52.598Z,600.00
2023-05-18T12:07:52.603Z,604.00
2023-05-18T12:08:52.683Z,602.00
2023-05-18T12:09:52.610Z,587.00
2023-05-18T12:10:52.692Z,577.00
2023-05-18T12:11:52.658Z,611.00
2023-05-18T12:12:52.690Z,660.00
2023-05-18T12:13:52.692Z,644.00
2023-05-18T12:14:52.720Z,633.00
2023-05-18T12:15:52.760Z,622.00
2023-05-18T12:16:52.746Z,631.00
2023-05-18T12:17:52.821Z,743.00
2023-05-18T12:18:53.585Z,763.00
2023-05-18T12:19:52.883Z,623.00
2023-05-18T12:20:53.075Z,651.00